Time;durP1;ratioP1;P1;durP2;ratioP2;P2;SDS_P1;SDS_P2;PMS_P1;PMS_P2;Temp;Humidity;BMP_temperature;BMP_pressure;BME280_temperature;BME280_humidity;BME280_pressure;Samples;Min_cycle;Max_cycle;Signal;HPM_P1;HPM_P2
2023/03/06 00:02:15;;;;;;;29.58;16.02;;;0.80;98.00;;;;;;5037488;28;20314;-65
2023/03/06 00:04:40;;;;;;;27.50;15.65;;;0.80;98.00;;;;;;5037045;28;20032;-67
2023/03/06 00:07:06;;;;;;;27.00;14.55;;;0.80;98.00;;;;;;5037545;28;20028;-67
2023/03/06 00:09:31;;;;;;;26.95;14.50;;;0.70;98.00;;;;;;5036964;28;20111;-66
2023/03/06 00:11:57;;;;;;;28.67;14.77;;;0.70;98.00;;;;;;5031785;28;20025;-67
2023/03/06 00:14:22;;;;;;;25.42;14.77;;;0.80;98.00;;;;;;5026577;28;20296;-67
2023/03/06 00:16:48;;;;;;;22.70;12.98;;;0.80;98.00;;;;;;5037297;28;20095;-67
2023/03/06 00:19:13;;;;;;;22.95;13.50;;;0.70;98.00;;;;;;5031261;28;20120;-67
2023/03/06 00:21:40;;;;;;;24.85;13.65;;;0.80;98.00;;;;;;5032985;28;20026;-66
2023/03/06 00:24:06;;;;;;;27.55;14.32;;;0.80;97.90;;;;;;5036765;28;20021;-67
2023/03/06 00:26:32;;;;;;;24.00;13.52;;;0.80;98.00;;;;;;5038089;28;20032;-67
2023/03/06 00:28:58;;;;;;;23.83;13.25;;;0.80;97.40;;;;;;5031579;28;20021;-66
2023/03/06 00:31:24;;;;;;;25.25;13.93;;;0.80;97.00;;;;;;5018479;28;20026;-67
2023/03/06 00:33:49;;;;;;;23.10;13.13;;;0.80;97.30;;;;;;5019438;28;20056;-67
2023/03/06 00:36:15;;;;;;;22.45;13.50;;;0.80;97.30;;;;;;5035892;28;20037;-66
2023/03/06 00:38:40;;;;;;;25.77;13.02;;;0.80;97.10;;;;;;5018371;28;20066;-66
2023/03/06 00:41:10;;;;;;;22.80;13.25;;;0.90;97.20;;;;;;5029361;28;20030;-67
2023/03/06 00:43:36;;;;;;;24.90;13.45;;;0.80;97.20;;;;;;5030253;28;20864;-67
2023/03/06 00:46:02;;;;;;;22.98;13.35;;;0.80;97.50;;;;;;5018616;28;20061;-66
2023/03/06 00:48:28;;;;;;;22.98;12.63;;;0.80;97.60;;;;;;5018360;28;20435;-67
2023/03/06 00:50:53;;;;;;;25.45;13.55;;;0.80;97.60;;;;;;5023641;28;20033;-66
2023/03/06 00:53:19;;;;;;;27.40;13.52;;;0.70;97.80;;;;;;5027899;28;20028;-67
2023/03/06 00:55:45;;;;;;;26.75;14.23;;;0.80;97.40;;;;;;5027047;28;20084;-67
2023/03/06 00:58:11;;;;;;;25.35;14.15;;;0.90;97.00;;;;;;5033092;28;20026;-67
2023/03/06 01:00:36;;;;;;;27.20;13.40;;;0.80;96.90;;;;;;5034319;28;20510;-67
2023/03/06 01:03:02;;;;;;;25.52;13.18;;;0.80;97.20;;;;;;5028366;28;20116;-67
2023/03/06 01:05:35;;;;;;;24.08;12.95;;;0.80;97.30;;;;;;5035366;28;20075;-66
2023/03/06 01:08:01;;;;;;;27.38;13.52;;;0.80;97.50;;;;;;5036371;28;20071;-67
2023/03/06 01:10:27;;;;;;;22.55;13.20;;;0.80;97.30;;;;;;5036280;28;20045;-67
2023/03/06 01:12:53;;;;;;;23.52;13.80;;;0.70;97.50;;;;;;5035809;28;20367;-66
2023/03/06 01:15:20;;;;;;;22.92;12.85;;;0.80;97.50;;;;;;5037124;28;20036;-66
2023/03/06 01:17:46;;;;;;;22.75;12.38;;;0.80;97.40;;;;;;5035822;28;20040;-66
2023/03/06 01:20:13;;;;;;;25.35;13.23;;;0.80;97.20;;;;;;5035959;28;20029;-66
2023/03/06 01:22:39;;;;;;;24.60;13.35;;;0.80;97.20;;;;;;5034667;28;20414;-66
2023/03/06 01:25:05;;;;;;;23.52;12.50;;;0.80;97.30;;;;;;5036519;28;20120;-68
2023/03/06 01:27:31;;;;;;;28.02;14.02;;;0.80;97.00;;;;;;5025829;28;20037;-68
2023/03/06 01:29:56;;;;;;;24.08;12.98;;;0.80;97.00;;;;;;5017992;28;20033;-66
2023/03/06 01:32:22;;;;;;;22.27;12.32;;;0.90;97.30;;;;;;5016561;28;20339;-67
2023/03/06 01:34:47;;;;;;;21.75;12.40;;;0.90;97.10;;;;;;5019800;28;20304;-67
2023/03/06 01:37:13;;;;;;;22.83;13.60;;;0.90;96.10;;;;;;5037325;28;20114;-67
2023/03/06 01:39:39;;;;;;;24.58;13.63;;;0.90;95.90;;;;;;5039644;28;20040;-67
2023/03/06 01:42:04;;;;;;;24.08;13.70;;;0.90;96.10;;;;;;5029850;28;20467;-67
2023/03/06 01:44:30;;;;;;;23.80;13.18;;;0.90;96.50;;;;;;5037178;28;20296;-67
2023/03/06 01:46:56;;;;;;;22.65;12.68;;;1.00;97.00;;;;;;5025600;28;20029;-67
2023/03/06 01:49:27;;;;;;;23.70;13.38;;;0.90;97.00;;;;;;5035105;28;20029;-67
2023/03/06 01:52:10;;;;;;;23.08;12.93;;;1.00;96.20;;;;;;5031292;28;21958;-67
2023/03/06 01:54:59;;;;;;;23.47;13.03;;;1.00;95.80;;;;;;5042283;28;20113;-66
2023/03/06 01:57:39;;;;;;;22.35;12.50;;;1.10;94.40;;;;;;5039446;28;20283;-67
2023/03/06 02:00:11;;;;;;;24.05;13.88;;;1.10;94.60;;;;;;5043617;28;20049;-67
2023/03/06 02:02:39;;;;;;;24.45;12.93;;;1.10;94.80;;;;;;5036519;28;20057;-67
2023/03/06 02:05:06;;;;;;;26.40;13.18;;;1.20;94.70;;;;;;5031210;28;20028;-66
2023/03/06 02:07:33;;;;;;;24.75;12.73;;;1.20;94.50;;;;;;5026615;28;20430;-67
2023/03/06 02:09:58;;;;;;;25.00;13.88;;;1.10;94.90;;;;;;5021838;28;20037;-67
2023/03/06 02:12:27;;;;;;;26.13;15.07;;;1.10;94.90;;;;;;5036996;28;20026;-66
2023/03/06 02:14:53;;;;;;;23.17;12.88;;;1.10;95.10;;;;;;5035494;28;20035;-67
2023/03/06 02:17:20;;;;;;;20.95;11.48;;;1.20;94.20;;;;;;5031468;28;20321;-67
2023/03/06 02:19:52;;;;;;;24.55;12.82;;;1.20;94.10;;;;;;5023145;28;20026;-67
2023/03/06 02:22:18;;;;;;;25.48;14.05;;;1.10;94.20;;;;;;5028974;28;20044;-67
2023/03/06 02:24:48;;;;;;;23.60;12.77;;;1.10;94.80;;;;;;5018422;28;20026;-67
2023/03/06 02:27:16;;;;;;;24.35;13.38;;;1.10;95.40;;;;;;5025271;28;20022;-67
2023/03/06 02:29:42;;;;;;;22.58;12.93;;;1.00;95.70;;;;;;5016346;28;20327;-67
2023/03/06 02:32:08;;;;;;;21.77;12.48;;;1.10;95.20;;;;;;5021678;28;20057;-67
2023/03/06 02:34:37;;;;;;;24.33;12.38;;;1.00;95.20;;;;;;5035646;28;20033;-67
2023/03/06 02:37:11;;;;;;;23.15;13.13;;;1.00;95.00;;;;;;5025756;28;20452;-67
2023/03/06 02:39:45;;;;;;;22.83;13.38;;;1.00;94.60;;;;;;5031225;28;20079;-67
2023/03/06 02:42:20;;;;;;;23.27;12.93;;;1.00;94.60;;;;;;5024954;28;20056;-67
2023/03/06 02:44:47;;;;;;;22.60;12.25;;;1.00;94.70;;;;;;5037245;28;20055;-67
2023/03/06 02:47:14;;;;;;;20.73;12.07;;;1.00;95.00;;;;;;5035739;28;20018;-67
2023/03/06 02:49:39;;;;;;;25.50;12.95;;;1.00;95.10;;;;;;5050512;28;20021;-67
2023/03/06 02:52:08;;;;;;;21.23;12.30;;;1.00;95.30;;;;;;5037007;28;20029;-67
2023/03/06 02:54:34;;;;;;;22.73;11.18;;;1.10;95.40;;;;;;5023510;28;20105;-67
2023/03/06 02:56:59;;;;;;;22.17;12.73;;;1.20;95.10;;;;;;5033640;28;20101;-67
2023/03/06 02:59:25;;;;;;;22.88;12.43;;;1.20;95.10;;;;;;5033920;28;20072;-67
2023/03/06 03:01:50;;;;;;;22.65;11.38;;;1.00;96.50;;;;;;5035816;28;20426;-66
2023/03/06 03:04:16;;;;;;;30.83;14.30;;;1.00;97.10;;;;;;5032196;28;20368;-66
2023/03/06 03:06:41;;;;;;;21.98;11.50;;;0.90;97.40;;;;;;5045157;28;20026;-66
2023/03/06 03:09:07;;;;;;;24.20;12.90;;;0.80;98.00;;;;;;5021716;28;20037;-67
2023/03/06 03:11:32;;;;;;;24.63;12.73;;;0.80;98.00;;;;;;5033675;28;20076;-67
2023/03/06 03:13:58;;;;;;;22.23;12.13;;;0.80;98.00;;;;;;5034606;28;20025;-67
2023/03/06 03:16:23;;;;;;;23.65;12.60;;;0.80;98.00;;;;;;5027417;28;20088;-66
2023/03/06 03:18:52;;;;;;;23.58;13.57;;;0.70;98.00;;;;;;5035732;28;20021;-67
2023/03/06 03:21:18;;;;;;;24.65;13.77;;;0.70;98.00;;;;;;5034369;28;20022;-67
2023/03/06 03:23:43;;;;;;;23.73;12.52;;;0.60;98.00;;;;;;5025345;28;20880;-67
2023/03/06 03:26:18;;;;;;;24.40;13.43;;;0.60;98.00;;;;;;5034402;28;20029;-66
2023/03/06 03:28:43;;;;;;;24.52;13.38;;;0.70;98.00;;;;;;5016349;28;20314;-66
2023/03/06 03:31:11;;;;;;;21.35;12.15;;;0.70;98.00;;;;;;5025748;28;20034;-67
2023/03/06 03:33:37;;;;;;;22.35;13.15;;;0.70;98.00;;;;;;5015710;28;20029;-67
2023/03/06 03:36:05;;;;;;;22.58;13.38;;;0.70;98.00;;;;;;5025514;28;20033;-67
2023/03/06 03:38:32;;;;;;;24.35;12.68;;;0.70;98.00;;;;;;5033012;28;20030;-67
2023/03/06 03:41:00;;;;;;;22.85;12.15;;;0.80;97.40;;;;;;5020103;28;20025;-66
2023/03/06 03:43:25;;;;;;;22.95;12.75;;;0.70;98.00;;;;;;5032508;28;20434;-66
2023/03/06 03:45:52;;;;;;;25.13;13.02;;;0.80;98.00;;;;;;5031050;28;20037;-66
2023/03/06 03:48:18;;;;;;;26.52;13.35;;;0.80;97.20;;;;;;5022944;28;20036;-66
2023/03/06 03:50:43;;;;;;;24.33;13.45;;;0.80;98.00;;;;;;5038032;28;20422;-66
2023/03/06 03:53:09;;;;;;;24.50;13.57;;;0.90;97.40;;;;;;5024778;28;20088;-67
2023/03/06 03:55:34;;;;;;;26.45;13.43;;;1.00;95.90;;;;;;5037908;28;20026;-67
2023/03/06 03:58:00;;;;;;;23.55;12.70;;;1.00;95.50;;;;;;5042905;28;20029;-67
2023/03/06 04:00:25;;;;;;;26.25;14.00;;;1.10;95.00;;;;;;5039227;28;20435;-67
2023/03/06 04:02:51;;;;;;;24.23;13.35;;;1.10;96.50;;;;;;5043935;28;20092;-67
2023/03/06 04:05:17;;;;;;;23.60;13.00;;;0.90;96.70;;;;;;5027422;28;20026;-67
2023/03/06 04:07:42;;;;;;;28.13;13.20;;;1.00;96.80;;;;;;5025034;28;20033;-66
2023/03/06 04:10:10;;;;;;;22.60;13.40;;;1.10;96.10;;;;;;5042083;28;20048;-66
2023/03/06 04:12:36;;;;;;;22.00;11.93;;;1.00;95.80;;;;;;5033948;28;20411;-66
2023/03/06 04:15:04;;;;;;;25.40;13.50;;;1.00;95.60;;;;;;5029757;28;20034;-66
2023/03/06 04:17:32;;;;;;;25.55;13.55;;;0.90;95.90;;;;;;5028340;28;20156;-66
2023/03/06 04:19:59;;;;;;;29.52;14.25;;;0.90;96.70;;;;;;5034499;28;20318;-68
2023/03/06 04:22:25;;;;;;;23.05;12.43;;;0.90;96.90;;;;;;5034608;28;20028;-67
2023/03/06 04:24:51;;;;;;;21.25;12.38;;;1.00;95.50;;;;;;5038493;28;20052;-67
2023/03/06 04:27:16;;;;;;;19.65;11.57;;;1.10;95.00;;;;;;5028350;28;20327;-67
2023/03/06 04:29:42;;;;;;;22.00;12.70;;;1.00;95.70;;;;;;5051487;28;20065;-67
2023/03/06 04:32:07;;;;;;;22.15;12.32;;;0.90;97.50;;;;;;5050330;28;20025;-67
2023/03/06 04:34:33;;;;;;;24.00;13.35;;;0.80;98.00;;;;;;5056972;28;20025;-67
2023/03/06 04:36:59;;;;;;;30.10;14.25;;;0.80;98.00;;;;;;5047779;28;20021;-67
2023/03/06 04:39:24;;;;;;;37.75;15.88;;;0.80;98.00;;;;;;5022005;28;20037;-67
2023/03/06 04:41:50;;;;;;;32.00;14.90;;;0.90;97.60;;;;;;5036799;28;20040;-66
2023/03/06 04:44:15;;;;;;;30.83;14.95;;;0.90;97.00;;;;;;5026538;28;20105;-66
2023/03/06 04:46:43;;;;;;;27.90;13.25;;;0.90;96.50;;;;;;5035911;28;20052;-66
2023/03/06 04:49:09;;;;;;;26.17;13.50;;;0.90;96.50;;;;;;5034648;28;20038;-66
2023/03/06 04:51:35;;;;;;;26.80;13.38;;;0.90;96.30;;;;;;5031294;28;20079;-66
2023/03/06 04:54:02;;;;;;;23.60;13.00;;;1.00;95.70;;;;;;5038979;28;20029;-66
2023/03/06 04:56:29;;;;;;;31.85;15.27;;;1.00;95.20;;;;;;5036483;28;20025;-66
2023/03/06 04:58:54;;;;;;;23.40;12.27;;;1.00;95.10;;;;;;5035919;28;20079;-66
2023/03/06 05:01:23;;;;;;;24.95;13.30;;;1.00;96.00;;;;;;5036093;28;20053;-66
2023/03/06 05:03:48;;;;;;;28.30;13.55;;;0.90;97.60;;;;;;5035369;28;20430;-66
2023/03/06 05:06:14;;;;;;;33.45;18.23;;;0.80;98.00;;;;;;5031480;28;20033;-66
2023/03/06 05:08:40;;;;;;;29.45;15.45;;;0.70;98.00;;;;;;5036435;28;20116;-66
2023/03/06 05:11:06;;;;;;;26.20;14.00;;;0.70;97.90;;;;;;5036722;28;20158;-66
2023/03/06 05:13:32;;;;;;;30.02;15.88;;;0.70;98.00;;;;;;5020330;28;20399;-67
2023/03/06 05:16:05;;;;;;;25.42;14.82;;;0.70;98.00;;;;;;5016592;28;20029;-66
2023/03/06 05:18:32;;;;;;;28.98;15.10;;;0.80;97.30;;;;;;5033773;28;20041;-65
2023/03/06 05:20:59;;;;;;;31.15;16.25;;;0.80;97.30;;;;;;5032880;28;20331;-67
2023/03/06 05:23:29;;;;;;;38.17;21.88;;;0.80;96.90;;;;;;5027485;28;20037;-66
2023/03/06 05:25:55;;;;;;;34.45;19.73;;;0.80;97.10;;;;;;5035696;28;20041;-67
2023/03/06 05:28:21;;;;;;;36.17;19.52;;;0.80;97.20;;;;;;5025865;28;20041;-68
2023/03/06 05:30:47;;;;;;;30.40;17.73;;;0.80;97.10;;;;;;5016347;28;20101;-66
2023/03/06 05:33:13;;;;;;;32.60;18.10;;;0.70;97.20;;;;;;5021771;28;20599;-66
2023/03/06 05:35:38;;;;;;;29.60;15.85;;;0.80;97.40;;;;;;5032301;28;20037;-66
2023/03/06 05:38:04;;;;;;;29.48;16.85;;;0.70;97.40;;;;;;5023148;28;20419;-67
2023/03/06 05:40:29;;;;;;;33.75;17.38;;;0.70;97.60;;;;;;5036901;28;20041;-66
2023/03/06 05:42:55;;;;;;;29.40;16.70;;;0.70;97.70;;;;;;5030357;28;20361;-66
2023/03/06 05:45:21;;;;;;;31.80;16.13;;;0.60;97.80;;;;;;5027458;28;20372;-66
2023/03/06 05:47:46;;;;;;;35.13;18.58;;;0.60;98.00;;;;;;5032824;28;20119;-67
2023/03/06 05:50:13;;;;;;;34.45;18.30;;;0.60;98.00;;;;;;5039842;28;20377;-66
2023/03/06 05:52:39;;;;;;;33.92;16.92;;;0.60;98.00;;;;;;5025856;28;20087;-66
2023/03/06 05:55:05;;;;;;;36.70;18.25;;;0.70;98.00;;;;;;5031879;28;20434;-66
2023/03/06 05:57:31;;;;;;;31.38;16.55;;;0.60;98.00;;;;;;5035160;28;20653;-66
2023/03/06 05:59:56;;;;;;;31.17;16.00;;;0.60;98.00;;;;;;5035506;28;20080;-67
2023/03/06 06:02:22;;;;;;;38.47;18.75;;;0.60;98.00;;;;;;5033836;28;20366;-65
2023/03/06 06:04:48;;;;;;;31.25;15.90;;;0.60;98.00;;;;;;5028827;28;20053;-67
2023/03/06 06:07:15;;;;;;;30.58;16.90;;;0.60;98.00;;;;;;5023652;28;20088;-67
2023/03/06 06:09:44;;;;;;;32.55;17.08;;;0.60;98.00;;;;;;5019987;28;20562;-66
2023/03/06 06:12:10;;;;;;;29.38;15.65;;;0.60;98.00;;;;;;5017242;28;20033;-66
2023/03/06 06:14:36;;;;;;;29.65;15.98;;;0.60;98.00;;;;;;5031068;28;20052;-66
2023/03/06 06:17:01;;;;;;;32.03;16.17;;;0.70;98.00;;;;;;5022724;28;20418;-67
2023/03/06 06:19:28;;;;;;;27.08;15.25;;;0.70;98.00;;;;;;5026467;28;20029;-66
2023/03/06 06:21:54;;;;;;;28.88;15.40;;;0.60;98.00;;;;;;5026588;28;20036;-66
2023/03/06 06:24:22;;;;;;;31.25;16.77;;;0.70;98.00;;;;;;5026728;28;20026;-66
2023/03/06 06:26:52;;;;;;;29.38;16.20;;;0.70;98.00;;;;;;5023973;28;20025;-65
2023/03/06 06:29:18;;;;;;;33.30;17.05;;;0.60;98.00;;;;;;5025207;28;20030;-66
2023/03/06 06:31:44;;;;;;;31.27;17.25;;;0.60;97.90;;;;;;5029141;28;20108;-66
2023/03/06 06:34:10;;;;;;;35.17;20.48;;;0.70;97.90;;;;;;5027593;28;20112;-66
2023/03/06 06:36:36;;;;;;;37.08;21.67;;;0.70;97.90;;;;;;5024424;28;20034;-66
2023/03/06 06:39:02;;;;;;;32.28;17.08;;;0.70;97.90;;;;;;5020446;28;20068;-66
2023/03/06 06:41:28;;;;;;;31.38;18.02;;;0.70;97.90;;;;;;5026532;28;20086;-67
2023/03/06 06:43:54;;;;;;;29.70;17.20;;;0.80;97.80;;;;;;5025394;28;20064;-67
2023/03/06 06:46:20;;;;;;;33.78;18.75;;;0.80;97.70;;;;;;5023538;28;20395;-65
2023/03/06 06:48:53;;;;;;;31.60;18.08;;;0.80;97.60;;;;;;5033179;28;20025;-66
2023/03/06 06:51:21;;;;;;;31.85;18.35;;;0.80;97.70;;;;;;5026746;28;20032;-66
2023/03/06 06:53:47;;;;;;;34.30;17.40;;;0.90;97.90;;;;;;5026825;28;20029;-67
2023/03/06 06:56:12;;;;;;;28.98;17.05;;;0.80;97.70;;;;;;5032650;28;20021;-66
2023/03/06 06:58:38;;;;;;;34.88;18.80;;;0.80;97.90;;;;;;5020137;28;20104;-66
2023/03/06 07:01:08;;;;;;;48.88;22.42;;;0.90;98.00;;;;;;5020270;28;20140;-66
2023/03/06 07:03:34;;;;;;;39.88;19.17;;;0.90;97.90;;;;;;5035776;28;20430;-66
2023/03/06 07:05:59;;;;;;;37.38;18.75;;;0.90;98.00;;;;;;5030043;28;20051;-66
2023/03/06 07:08:25;;;;;;;34.75;18.60;;;0.90;98.00;;;;;;5028930;28;20026;-66
2023/03/06 07:10:51;;;;;;;31.10;18.70;;;0.90;98.00;;;;;;5033309;28;20418;-66
2023/03/06 07:13:17;;;;;;;30.95;16.85;;;0.90;98.00;;;;;;5024877;28;20037;-66
2023/03/06 07:15:42;;;;;;;32.85;17.27;;;0.90;98.00;;;;;;5032718;28;20322;-66
2023/03/06 07:18:08;;;;;;;31.80;16.75;;;0.90;98.00;;;;;;5033749;28;20029;-66
2023/03/06 07:20:34;;;;;;;33.58;16.92;;;0.80;98.00;;;;;;5031779;28;20033;-66
2023/03/06 07:23:00;;;;;;;34.50;18.90;;;0.80;98.00;;;;;;5039001;28;20022;-66
2023/03/06 07:25:26;;;;;;;39.50;19.42;;;0.80;98.00;;;;;;5034375;28;20621;-66
2023/03/06 07:27:55;;;;;;;34.25;18.75;;;0.80;98.00;;;;;;5032037;28;20033;-66
2023/03/06 07:30:22;;;;;;;42.40;21.65;;;0.80;98.00;;;;;;5030412;28;20040;-66
2023/03/06 07:32:50;;;;;;;39.00;19.52;;;0.80;98.00;;;;;;5025988;28;20029;-66
2023/03/06 07:35:16;;;;;;;35.78;19.25;;;0.90;98.00;;;;;;5036139;28;20112;-66
2023/03/06 07:37:42;;;;;;;33.95;19.45;;;0.90;98.00;;;;;;5033217;28;20039;-66
2023/03/06 07:40:09;;;;;;;33.90;18.70;;;0.90;98.00;;;;;;5033809;28;20096;-66
2023/03/06 07:42:35;;;;;;;35.47;19.63;;;0.90;98.00;;;;;;5035379;28;20025;-67
2023/03/06 07:45:02;;;;;;;32.95;16.83;;;0.90;98.00;;;;;;5037859;28;20145;-66
2023/03/06 07:47:27;;;;;;;33.53;19.02;;;0.90;98.00;;;;;;5036882;28;20159;-67
2023/03/06 07:49:55;;;;;;;36.55;19.08;;;0.90;98.00;;;;;;5032398;28;20479;-67
2023/03/06 07:52:21;;;;;;;34.47;18.67;;;0.90;98.00;;;;;;5026079;28;20029;-67
2023/03/06 07:54:47;;;;;;;34.03;18.88;;;0.90;98.00;;;;;;5032435;28;20021;-66
2023/03/06 07:57:13;;;;;;;32.97;18.40;;;1.00;98.00;;;;;;5029833;28;20013;-67
2023/03/06 07:59:39;;;;;;;34.85;17.95;;;1.00;98.00;;;;;;5026831;28;20531;-67
2023/03/06 08:02:04;;;;;;;34.97;19.40;;;1.10;98.00;;;;;;5027670;28;20082;-66
2023/03/06 08:04:30;;;;;;;31.00;18.17;;;1.20;98.00;;;;;;5026039;28;20045;-67
2023/03/06 08:06:58;;;;;;;33.03;17.83;;;1.20;98.00;;;;;;5028256;28;20030;-66
2023/03/06 08:09:24;;;;;;;37.08;18.75;;;1.30;98.00;;;;;;5020959;28;20029;-67
2023/03/06 08:11:49;;;;;;;30.55;17.42;;;1.30;98.00;;;;;;5019107;28;20338;-66
2023/03/06 08:14:15;;;;;;;39.47;20.98;;;1.40;98.00;;;;;;5021322;28;20045;-66
2023/03/06 08:16:41;;;;;;;32.92;17.48;;;1.40;98.00;;;;;;5027938;28;20029;-67
2023/03/06 08:19:07;;;;;;;29.67;17.20;;;1.40;98.00;;;;;;5034114;28;20033;-66
2023/03/06 08:21:33;;;;;;;32.08;18.45;;;1.50;98.00;;;;;;5029580;28;20029;-67
2023/03/06 08:23:59;;;;;;;30.02;16.45;;;1.30;97.90;;;;;;5034745;28;20037;-66
2023/03/06 08:26:30;;;;;;;33.42;16.65;;;1.30;98.00;;;;;;5031325;28;20032;-67
2023/03/06 08:28:57;;;;;;;27.30;16.23;;;1.30;98.00;;;;;;5030467;28;20426;-67
2023/03/06 08:31:25;;;;;;;31.23;16.88;;;1.40;98.00;;;;;;5029204;28;20025;-66
2023/03/06 08:33:51;;;;;;;26.80;14.82;;;1.40;97.70;;;;;;5026847;28;20030;-67
2023/03/06 08:36:17;;;;;;;30.40;16.05;;;1.30;97.70;;;;;;5028518;28;20445;-66
2023/03/06 08:38:43;;;;;;;25.95;15.23;;;1.30;97.20;;;;;;5019502;28;20034;-66
2023/03/06 08:41:08;;;;;;;29.65;16.67;;;1.20;97.40;;;;;;5031747;28;20030;-65
2023/03/06 08:43:34;;;;;;;27.85;14.00;;;1.20;97.60;;;;;;5032711;28;20033;-66
2023/03/06 08:46:00;;;;;;;29.13;15.18;;;1.30;97.70;;;;;;5017104;28;20025;-66
2023/03/06 08:48:26;;;;;;;28.23;16.23;;;1.20;97.30;;;;;;5027264;28;20021;-66
2023/03/06 08:50:54;;;;;;;27.77;15.35;;;1.20;97.30;;;;;;5033199;28;20033;-66
2023/03/06 08:53:24;;;;;;;27.38;14.90;;;1.20;97.10;;;;;;5032517;28;20033;-68
2023/03/06 08:55:50;;;;;;;27.95;15.45;;;1.20;97.00;;;;;;5034302;28;20037;-67
2023/03/06 08:58:15;;;;;;;27.27;13.93;;;1.20;97.20;;;;;;5036638;28;20040;-66
2023/03/06 09:00:41;;;;;;;26.05;13.73;;;1.30;97.60;;;;;;5033795;28;20028;-67
2023/03/06 09:03:07;;;;;;;22.02;13.38;;;1.40;97.20;;;;;;5031814;28;20047;-67
2023/03/06 09:05:32;;;;;;;43.15;23.13;;;1.50;96.40;;;;;;5033066;28;20029;-67
2023/03/06 09:07:58;;;;;;;39.05;20.67;;;1.60;96.50;;;;;;5032212;28;20452;-67
2023/03/06 09:10:24;;;;;;;32.85;18.50;;;1.70;96.60;;;;;;5031922;28;20091;-67
2023/03/06 09:12:51;;;;;;;26.70;16.25;;;1.80;96.80;;;;;;5037182;28;20366;-67
2023/03/06 09:15:18;;;;;;;22.02;13.02;;;1.70;96.70;;;;;;5022058;28;20445;-67
2023/03/06 09:17:44;;;;;;;23.67;13.15;;;1.90;96.60;;;;;;5037376;28;20037;-67
2023/03/06 09:20:11;;;;;;;25.33;14.95;;;1.80;95.90;;;;;;5022782;28;20458;-66
2023/03/06 09:22:37;;;;;;;27.27;16.10;;;1.80;96.50;;;;;;5026765;28;20116;-67
2023/03/06 09:25:04;;;;;;;26.77;15.32;;;1.90;96.60;;;;;;5021876;28;20033;-67
2023/03/06 09:27:29;;;;;;;31.45;16.77;;;1.90;96.50;;;;;;5029922;28;20398;-67
2023/03/06 09:29:56;;;;;;;31.42;17.15;;;1.80;96.20;;;;;;5030329;28;20081;-67
2023/03/06 09:32:22;;;;;;;97.55;42.20;;;1.90;96.10;;;;;;5032065;28;20033;-67
2023/03/06 09:34:48;;;;;;;97.95;42.78;;;1.90;96.50;;;;;;5024356;28;20414;-66
2023/03/06 09:37:15;;;;;;;36.92;19.13;;;1.80;96.80;;;;;;5024183;28;20362;-67
2023/03/06 09:39:40;;;;;;;35.95;18.52;;;1.90;97.10;;;;;;5022156;28;20036;-67
2023/03/06 09:42:07;;;;;;;27.33;16.20;;;2.00;97.00;;;;;;5033213;28;20029;-67
2023/03/06 09:44:36;;;;;;;31.08;16.85;;;1.90;96.70;;;;;;5033958;28;20080;-67
2023/03/06 09:47:02;;;;;;;28.80;15.32;;;1.90;97.10;;;;;;5033315;28;20028;-67
2023/03/06 09:50:15;;;;;;;26.02;14.52;;;1.80;96.20;;;;;;5036116;28;20045;-66
2023/03/06 09:52:58;;;;;;;27.60;16.25;;;1.70;96.10;;;;;;5007875;28;20046;-66
2023/03/06 09:55:26;;;;;;;30.02;15.77;;;1.70;96.30;;;;;;5025832;28;20342;-67
2023/03/06 09:57:51;;;;;;;24.83;15.50;;;1.70;96.40;;;;;;5021254;28;20029;-67
2023/03/06 10:00:34;;;;;;;29.55;16.33;;;1.80;95.90;;;;;;5039093;28;20037;-66
2023/03/06 10:03:09;;;;;;;30.50;16.35;;;1.90;96.20;;;;;;5032803;28;20025;-67
2023/03/06 10:05:40;;;;;;;26.60;15.23;;;2.00;96.00;;;;;;5036600;28;20060;-66
2023/03/06 10:08:35;;;;;;;28.67;16.45;;;2.10;95.80;;;;;;5034139;28;20025;-66
2023/03/06 10:11:05;;;;;;;25.45;15.35;;;2.20;95.30;;;;;;5029485;28;20107;-66
2023/03/06 10:13:48;;;;;;;25.75;14.98;;;2.20;95.10;;;;;;5033535;28;20025;-67
2023/03/06 10:16:30;;;;;;;28.42;17.08;;;2.40;95.10;;;;;;5026869;28;20029;-67
2023/03/06 10:19:00;;;;;;;29.45;17.40;;;2.40;94.60;;;;;;5031243;28;20026;-67
2023/03/06 10:21:43;;;;;;;32.15;16.80;;;2.50;94.80;;;;;;5032623;28;20081;-66
2023/03/06 10:24:14;;;;;;;32.00;17.00;;;2.60;95.00;;;;;;5021395;28;20040;-66
2023/03/06 10:26:48;;;;;;;31.52;17.17;;;2.80;94.70;;;;;;5027321;28;20526;-66
2023/03/06 10:29:29;;;;;;;32.72;19.27;;;2.90;94.40;;;;;;5017051;28;20026;-66
2023/03/06 10:32:10;;;;;;;35.65;19.23;;;3.00;93.60;;;;;;5030700;28;20025;-67
2023/03/06 10:34:39;;;;;;;33.03;16.77;;;3.30;93.90;;;;;;5047936;28;20038;-66
2023/03/06 10:37:16;;;;;;;27.08;15.68;;;3.40;92.50;;;;;;5020354;28;20021;-67
2023/03/06 10:39:41;;;;;;;30.08;16.50;;;3.40;91.70;;;;;;5033829;28;20037;-67
2023/03/06 10:42:08;;;;;;;29.20;16.30;;;3.40;91.90;;;;;;5035074;28;20080;-67
2023/03/06 10:44:33;;;;;;;32.95;16.67;;;3.50;91.70;;;;;;5035283;28;20029;-67
2023/03/06 10:47:27;;;;;;;27.70;16.85;;;3.70;91.00;;;;;;5033708;28;20029;-67
2023/03/06 10:49:59;;;;;;;27.55;15.80;;;4.00;90.00;;;;;;5032790;28;20088;-67
2023/03/06 10:52:29;;;;;;;26.60;15.70;;;4.10;89.80;;;;;;5034023;28;20021;-67
2023/03/06 10:55:28;;;;;;;25.67;15.07;;;4.40;90.10;;;;;;5031277;28;20099;-67
2023/03/06 10:57:54;;;;;;;27.27;14.60;;;4.20;88.90;;;;;;5034812;28;20030;-66
2023/03/06 11:00:23;;;;;;;30.30;17.42;;;3.70;89.20;;;;;;5033529;28;20373;-67
2023/03/06 11:03:05;;;;;;;27.10;16.27;;;3.60;90.80;;;;;;5032557;28;20113;-67
2023/03/06 11:05:31;;;;;;;26.42;15.52;;;3.60;90.80;;;;;;5030519;28;20329;-66
2023/03/06 11:07:59;;;;;;;27.58;15.57;;;3.60;91.20;;;;;;5027539;28;20025;-67
2023/03/06 11:10:25;;;;;;;27.48;15.55;;;3.80;91.50;;;;;;5031570;28;20079;-66
2023/03/06 11:13:17;;;;;;;28.08;14.88;;;4.00;89.90;;;;;;5031833;28;20030;-66
2023/03/06 11:16:00;;;;;;;25.73;14.50;;;3.70;90.20;;;;;;5029067;28;20061;-67
2023/03/06 11:18:33;;;;;;;24.88;14.52;;;3.50;90.10;;;;;;5023343;28;20084;-67
2023/03/06 11:21:01;;;;;;;27.33;14.48;;;3.40;90.40;;;;;;5031032;28;20119;-67
2023/03/06 11:23:46;;;;;;;27.52;15.25;;;3.40;90.70;;;;;;5030387;28;20025;-67
2023/03/06 11:26:14;;;;;;;24.92;14.18;;;3.70;90.40;;;;;;5030467;28;20029;-66
2023/03/06 11:29:21;;;;;;;22.35;13.13;;;3.70;89.90;;;;;;5025846;28;20030;-67
2023/03/06 11:31:53;;;;;;;23.40;13.23;;;3.90;89.10;;;;;;5027185;28;20419;-66
2023/03/06 11:34:35;;;;;;;24.65;13.02;;;3.90;88.60;;;;;;5031074;28;20034;-66
2023/03/06 11:37:13;;;;;;;22.00;11.48;;;4.00;89.10;;;;;;5030545;28;20064;-66
2023/03/06 11:39:55;;;;;;;23.00;13.15;;;4.00;87.20;;;;;;5028851;28;20079;-65
2023/03/06 11:42:45;;;;;;;22.50;12.48;;;3.70;88.10;;;;;;5028970;28;20029;-66
2023/03/06 11:45:27;;;;;;;21.08;11.90;;;3.80;88.80;;;;;;5029403;28;20373;-66
2023/03/06 11:48:12;;;;;;;20.50;11.85;;;3.80;88.30;;;;;;5029220;28;20116;-67
2023/03/06 11:50:45;;;;;;;19.20;11.63;;;3.60;88.20;;;;;;5025960;28;20029;-67
2023/03/06 11:53:21;;;;;;;20.70;11.80;;;3.40;89.30;;;;;;5028899;28;20041;-67
2023/03/06 11:56:14;;;;;;;22.77;12.00;;;3.30;90.30;;;;;;5029587;28;20037;-67
2023/03/06 11:58:58;;;;;;;21.10;11.93;;;3.20;89.70;;;;;;5025368;28;20188;-67
2023/03/06 12:01:51;;;;;;;18.48;10.10;;;3.30;89.90;;;;;;5028683;28;20055;-67
2023/03/06 12:04:48;;;;;;;22.45;11.27;;;3.50;88.70;;;;;;5033217;28;20374;-66
2023/03/06 12:07:39;;;;;;;19.15;11.45;;;3.70;88.70;;;;;;5030802;28;20021;-66
2023/03/06 12:10:23;;;;;;;19.60;10.38;;;3.80;88.60;;;;;;5034174;28;20026;-66
2023/03/06 12:13:07;;;;;;;;;;;4.00;88.30;;;;;;5032808;28;20036;-67
2023/03/06 12:16:03;;;;;;;18.13;10.67;;;4.00;87.70;;;;;;5032853;28;19975;-66
2023/03/06 12:18:50;;;;;;;19.85;10.27;;;4.10;87.70;;;;;;5037033;28;20032;-66
2023/03/06 12:21:25;;;;;;;17.88;10.07;;;4.10;86.60;;;;;;5032731;28;20441;-66
2023/03/06 12:24:13;;;;;;;16.00;9.90;;;4.10;86.60;;;;;;5025007;28;20288;-66
2023/03/06 12:27:09;;;;;;;16.95;10.25;;;4.00;86.20;;;;;;5019086;28;20071;-67
2023/03/06 12:29:56;;;;;;;19.30;10.30;;;4.10;86.10;;;;;;5019374;28;20054;-66
2023/03/06 12:32:43;;;;;;;22.75;11.65;;;4.30;86.00;;;;;;5037222;28;20029;-66
2023/03/06 12:35:44;;;;;;;20.33;11.25;;;4.50;85.00;;;;;;5035737;28;20029;-67
2023/03/06 12:38:44;;;;;;;21.80;11.43;;;4.60;84.40;;;;;;5025451;28;20037;-66
2023/03/06 12:41:27;;;;;;;20.38;11.57;;;4.70;84.30;;;;;;5035679;28;20030;-66
2023/03/06 12:44:23;;;;;;;20.00;12.38;;;4.80;84.00;;;;;;5037700;28;20105;-66
2023/03/06 12:47:06;;;;;;;21.17;11.90;;;4.80;84.20;;;;;;5018095;28;20046;-66
2023/03/06 12:49:37;;;;;;;22.57;11.90;;;5.00;84.30;;;;;;5027237;28;20025;-66
2023/03/06 12:52:05;;;;;;;21.23;11.45;;;5.10;83.10;;;;;;5037987;28;20361;-66